Casstown, OH

3:35 PM EDT on August 28, 2015 (GMT -0400)
Concord Township Troy | | Change Station
CLOSE
Current Station
Personal Weather Station
Location: Troy, OH
Elevation: 840 ft
Nearby Weather Stations

Elev 840 ft 40.01 °N, 84.21 °W | Updated 1 minute ago

Partly Cloudy
Partly Cloudy
78.6 °F
Feels Like 80 °F
N
0.0
Wind Variable Wind from ESE
Gusts 4.0 mph

Today
High -- | Low -- °F
--% Chance of Precip.
Yesterday
High -- | Low -- °F
Precip. -- in
7:00 AM 8:14 PM
Waxing Gibbous, 99% visible
Pressure 30.17 in
Visibility 10.0 miles
Clouds Few 4500 ft
Mostly Cloudy 25000 ft
Heat Index 80 °F
Dew Point 58 °F
Humidity 50%
Rainfall 0.00 in
Snow Depth Not available.
UV 5 out of 12
Pollen 10.30 out of 12
Air Quality Not available.
Flu Activity Not available.
METAR KDAY 281856Z 10008KT 10SM FEW045 BKN250 25/13 A3018 RMK AO2 SLP215 T02500128
Pressure 30.17 in
Visibility 10.0 miles
Clouds Few 4500 ft
Mostly Cloudy 25000 ft
Heat Index 80 °F
Dew Point 58 °F
Humidity 50%
Rainfall 0.00 in
Snow Depth Not available.
UV 5 out of 12
Pollen 10.30 out of 12
Air Quality Not available.
Flu Activity Not available.
METAR KDAY 281856Z 10008KT 10SM FEW045 BKN250 25/13 A3018 RMK AO2 SLP215 T02500128

10-Day Weather Forecast

×

Almanac

Astronomy

Aug. 28, 2015 Rise Set
Actual Time
Civil Twilight
Nautical Twilight
Astronomical Twilight
Moon
Length of Visible Light
Length of Day
Tomorrow will be .
, % of the Moon is Illuminated

Today's Extremes

State Highs State Lows

Community

WunderPhotos

Upload Photos

1,850,464 photos uploaded!

WunderBlogs® & News

Nearby

Air Quality

  Air Quality AQ Index Pollutant
Not available.

Snow Depth

Station Depth Elevation

Earthquake Activity

City Distance Mag. Time & Date
Minimum magnitude displayed is 2.5.

Coastal Water Temperatures

Place Temperature

Stations

Nearby Weather Stations

Station Location Temp. Windchill Dew Point Humidity Wind Precip. Elev Updated Type